Time;durP1;ratioP1;P1;durP2;ratioP2;P2;SDS_P1;SDS_P2;PMS_P1;PMS_P2;Temp;Humidity;BMP_temperature;BMP_pressure;BME280_temperature;BME280_humidity;BME280_pressure;Samples;Min_cycle;Max_cycle;Signal;HPM_P1;HPM_P2
2021/12/25 00:00:16;;;;;;;29.35;12.43;;;;;;;5.39;96.44;100511.78;5001803;28;20043;-82
2021/12/25 00:02:42;;;;;;;33.03;12.55;;;;;;;5.37;96.26;100516.03;5000329;28;20256;-82
2021/12/25 00:05:08;;;;;;;32.08;13.23;;;;;;;5.34;96.33;100510.72;5001880;28;20026;-82
2021/12/25 00:07:34;;;;;;;32.28;13.35;;;;;;;5.33;96.79;100515.81;5002560;28;20045;-81
2021/12/25 00:10:00;;;;;;;32.50;13.15;;;;;;;5.32;97.11;100516.66;4994983;28;20199;-81
2021/12/25 00:12:26;;;;;;;31.92;12.82;;;;;;;5.33;96.87;100527.06;5000867;28;20158;-82
2021/12/25 00:14:51;;;;;;;31.48;13.38;;;;;;;5.34;96.61;100525.34;5000009;28;20026;-81
2021/12/25 00:17:16;;;;;;;35.35;13.95;;;;;;;5.33;97.28;100524.47;5001065;28;20060;-81
2021/12/25 00:19:43;;;;;;;34.92;14.30;;;;;;;5.33;96.83;100518.41;5001271;28;20027;-81
2021/12/25 00:22:09;;;;;;;33.22;13.85;;;;;;;5.31;96.89;100517.47;4995641;28;20033;-81
2021/12/25 00:24:34;;;;;;;32.15;13.85;;;;;;;5.28;96.96;100518.22;5003107;28;20089;-81
2021/12/25 00:27:07;;;;;;;34.38;14.75;;;;;;;5.28;96.99;100512.19;5005743;28;20213;-81
2021/12/25 00:29:55;;;;;;;36.05;14.60;;;;;;;5.26;96.97;100506.97;5006106;28;20140;-81
2021/12/25 00:34:46;;;;;;;34.13;13.30;;;;;;;5.24;96.94;100498.25;5004288;28;20097;-81
2021/12/25 00:37:12;;;;;;;32.45;13.50;;;;;;;5.25;96.80;100494.00;5005625;28;20034;-81
2021/12/25 00:39:37;;;;;;;32.05;13.88;;;;;;;5.23;96.25;100502.56;5004194;28;20068;-81
2021/12/25 00:42:04;;;;;;;29.77;12.63;;;;;;;5.21;96.87;100500.72;5005458;28;20049;-81
2021/12/25 00:44:30;;;;;;;41.28;13.85;;;;;;;5.20;96.59;100501.56;5004900;28;20034;-81
2021/12/25 00:46:57;;;;;;;34.47;13.77;;;;;;;5.19;96.62;100515.28;4997037;28;20029;-81
2021/12/25 00:49:23;;;;;;;35.65;14.02;;;;;;;5.18;96.31;100518.69;5004314;28;20061;-81
2021/12/25 00:51:49;;;;;;;33.63;14.18;;;;;;;5.18;96.66;100514.38;5005170;28;20281;-81
2021/12/25 00:54:15;;;;;;;31.75;13.82;;;;;;;5.16;96.63;100520.34;5004136;28;20034;-81
2021/12/25 00:56:41;;;;;;;36.90;14.75;;;;;;;5.15;96.80;100521.16;5005864;28;20289;-81
2021/12/25 00:59:06;;;;;;;34.40;13.93;;;;;;;5.16;96.80;100521.22;5005128;28;20026;-81
2021/12/25 01:01:31;;;;;;;38.08;15.32;;;;;;;5.15;96.74;100509.09;5003843;28;20042;-80
2021/12/25 01:03:57;;;;;;;35.83;14.63;;;;;;;5.16;96.91;100512.59;5004664;28;20273;-81
2021/12/25 01:06:22;;;;;;;39.25;14.98;;;;;;;5.15;96.67;100514.28;4998388;28;20308;-81
2021/12/25 01:08:47;;;;;;;38.05;15.23;;;;;;;5.14;96.83;100514.22;5000957;28;20150;-81
2021/12/25 01:11:13;;;;;;;38.70;15.73;;;;;;;5.15;96.53;100518.56;5004352;28;20032;-81
2021/12/25 01:13:45;;;;;;;38.08;16.17;;;;;;;5.11;96.66;100512.38;5002640;28;20018;-82
2021/12/25 01:16:17;;;;;;;37.45;16.75;;;;;;;5.11;96.99;100512.38;5004629;28;20057;-80
2021/12/25 01:29:31;;;;;;;37.97;15.13;;;;;;;5.09;96.31;100508.00;5003079;28;20033;-81
2021/12/25 01:39:26;;;;;;;41.45;16.42;;;;;;;5.07;96.42;100502.78;5004408;28;20030;-81
2021/12/25 01:49:47;;;;;;;45.03;18.27;;;;;;;5.02;96.70;100505.16;4999265;28;20057;-81
2021/12/25 01:52:13;;;;;;;50.95;18.85;;;;;;;4.99;96.61;100505.03;5004498;28;20026;-81
2021/12/25 01:54:38;;;;;;;51.53;19.85;;;;;;;4.98;96.83;100503.28;4990505;28;20026;-81
2021/12/25 01:57:03;;;;;;;46.55;19.25;;;;;;;4.98;96.58;100502.38;5003987;28;20031;-80
2021/12/25 01:59:29;;;;;;;51.90;19.80;;;;;;;4.97;96.37;100498.06;5003984;28;20037;-81
2021/12/25 02:01:54;;;;;;;47.45;19.10;;;;;;;4.96;96.67;100499.75;5002570;28;20042;-81
2021/12/25 02:04:20;;;;;;;51.60;19.55;;;;;;;4.94;96.31;100498.81;5002799;28;20089;-81
2021/12/25 02:06:45;;;;;;;57.10;20.48;;;;;;;4.93;96.38;100501.34;5004462;28;20037;-81
2021/12/25 02:09:11;;;;;;;52.88;20.60;;;;;;;4.93;96.07;100506.50;5002906;28;20196;-80
2021/12/25 02:11:37;;;;;;;55.78;21.40;;;;;;;4.89;96.62;100500.31;5003255;28;20273;-80
2021/12/25 02:14:03;;;;;;;58.20;21.40;;;;;;;4.91;96.13;100502.94;5003684;28;20033;-81
2021/12/25 02:16:38;;;;;;;56.65;21.25;;;;;;;4.88;96.15;100503.69;5004203;28;20100;-81
2021/12/25 02:19:10;;;;;;;58.15;21.42;;;;;;;4.87;96.04;100501.97;5001675;28;20068;-81
2021/12/25 02:21:39;;;;;;;60.67;21.38;;;;;;;4.87;96.03;100495.09;5002963;28;20097;-80
2021/12/25 02:24:11;;;;;;;58.35;20.73;;;;;;;4.87;96.08;100496.78;5002122;28;20026;-80
2021/12/25 02:26:40;;;;;;;58.05;20.85;;;;;;;4.85;96.22;100501.00;5002841;28;20030;-80
2021/12/25 02:29:05;;;;;;;55.55;19.17;;;;;;;4.82;96.15;100499.19;5002678;28;20049;-80
2021/12/25 02:31:31;;;;;;;55.20;20.58;;;;;;;4.84;95.92;100501.84;5018283;28;20014;-81
2021/12/25 02:33:57;;;;;;;54.15;19.60;;;;;;;4.84;96.06;100501.84;4994161;28;20101;-80
2021/12/25 02:36:22;;;;;;;55.20;20.20;;;;;;;4.84;95.88;100494.97;5001852;28;20176;-81
2021/12/25 02:38:49;;;;;;;50.90;18.45;;;;;;;4.82;96.15;100493.13;5002309;28;20058;-81
2021/12/25 02:41:14;;;;;;;49.60;19.20;;;;;;;4.79;95.70;100498.16;5000310;28;20033;-81
2021/12/25 02:43:43;;;;;;;46.60;17.92;;;;;;;4.77;95.80;100489.50;5001991;28;20287;-82
2021/12/25 02:46:09;;;;;;;47.95;17.85;;;;;;;4.74;95.67;100500.56;5002148;28;20032;-82
2021/12/25 02:48:37;;;;;;;47.38;17.80;;;;;;;4.72;95.61;100506.47;4992649;28;20022;-81
2021/12/25 02:51:03;;;;;;;49.40;18.85;;;;;;;4.70;95.38;100503.84;5002816;28;20034;-82
2021/12/25 02:53:29;;;;;;;46.47;18.15;;;;;;;4.65;95.15;100506.22;5001344;28;20033;-81
2021/12/25 02:55:55;;;;;;;45.55;17.60;;;;;;;4.61;95.60;100514.66;4987740;28;20031;-82
2021/12/25 02:58:20;;;;;;;52.03;18.17;;;;;;;4.58;95.52;100506.78;5001883;28;20042;-82
2021/12/25 03:00:53;;;;;;;43.03;16.38;;;;;;;4.54;95.14;100507.47;5001036;28;20188;-81
2021/12/25 03:03:20;;;;;;;45.30;17.60;;;;;;;4.50;94.48;100518.47;4996596;28;20022;-81
2021/12/25 03:05:46;;;;;;;41.22;16.23;;;;;;;4.44;94.85;100508.75;4994316;28;20057;-81
2021/12/25 03:08:13;;;;;;;44.58;17.08;;;;;;;4.39;94.67;100514.53;5003015;28;20018;-81
2021/12/25 03:10:39;;;;;;;49.85;18.25;;;;;;;4.34;94.90;100525.56;4986691;28;20026;-81
2021/12/25 03:15:46;;;;;;;46.10;16.98;;;;;;;4.22;94.41;100535.34;5002778;28;20022;-82
2021/12/25 03:18:23;;;;;;;51.05;19.38;;;;;;;4.20;94.58;100531.81;5001425;28;20018;-82
2021/12/25 03:20:56;;;;;;;57.58;21.17;;;;;;;4.15;94.34;100544.47;5001440;28;20257;-82
2021/12/25 03:23:24;;;;;;;47.55;17.38;;;;;;;4.12;94.88;100543.47;4994306;28;20042;-82
2021/12/25 03:25:52;;;;;;;61.08;25.27;;;;;;;4.08;95.16;100541.56;5001941;28;20042;-81
2021/12/25 03:28:21;;;;;;;51.50;18.30;;;;;;;4.06;94.88;100548.38;5001728;28;20093;-81
2021/12/25 03:30:47;;;;;;;64.68;27.08;;;;;;;4.04;94.31;100548.31;4999548;28;20065;-81
2021/12/25 03:33:15;;;;;;;56.08;20.73;;;;;;;4.00;94.27;100546.38;5001939;28;20034;-81
2021/12/25 03:35:41;;;;;;;53.83;19.60;;;;;;;3.98;94.43;100546.31;4998602;28;20022;-81
2021/12/25 03:38:10;;;;;;;51.80;19.98;;;;;;;3.93;94.37;100552.94;4987359;28;20034;-81
2021/12/25 03:40:35;;;;;;;44.17;16.33;;;;;;;3.90;93.74;100555.41;5002530;28;20022;-82
2021/12/25 03:43:01;;;;;;;40.80;15.00;;;;;;;3.85;93.65;100553.41;4993690;28;20295;-82
2021/12/25 03:45:30;;;;;;;43.85;17.13;;;;;;;3.78;94.05;100555.72;5001651;28;20026;-82
2021/12/25 03:48:40;;;;;;;44.53;16.63;;;;;;;3.76;94.18;100553.88;5002517;28;20033;-83
2021/12/25 03:58:55;;;;;;;40.50;15.00;;;;;;;3.62;94.06;100569.56;5006323;28;20133;-83
2021/12/25 04:01:28;;;;;;;41.95;15.13;;;;;;;3.57;94.16;100562.44;4990642;28;20062;-84
2021/12/25 04:07:02;;;;;;;43.83;16.55;;;;;;;3.52;93.92;100563.91;4996609;28;20072;-83
2021/12/25 04:09:29;;;;;;;44.60;15.85;;;;;;;3.48;93.90;100561.19;5005883;28;20053;-83
2021/12/25 04:11:58;;;;;;;39.53;15.25;;;;;;;3.46;93.84;100569.66;5005142;28;20029;-83
2021/12/25 04:14:24;;;;;;;44.08;16.60;;;;;;;3.42;93.86;100572.91;5002037;28;20241;-83
2021/12/25 04:16:50;;;;;;;45.78;16.75;;;;;;;3.40;93.73;100569.34;5003729;28;20026;-83
2021/12/25 04:19:16;;;;;;;42.03;16.67;;;;;;;3.34;93.92;100574.22;5003608;28;20204;-83
2021/12/25 04:21:52;;;;;;;51.83;18.90;;;;;;;3.31;94.11;100578.41;5006346;28;20041;-83
2021/12/25 04:24:17;;;;;;;51.17;18.42;;;;;;;3.29;93.90;100581.72;5005105;28;20137;-83
2021/12/25 04:26:44;;;;;;;49.50;18.40;;;;;;;3.28;94.04;100579.97;4998548;28;20062;-83
2021/12/25 05:06:51;;;;;;;45.90;17.52;;;;;;;2.54;91.83;100628.59;5005425;28;20285;-83
2021/12/25 05:09:16;;;;;;;53.05;19.30;;;;;;;2.50;92.18;100621.50;5003536;28;20026;-83
2021/12/25 05:11:42;;;;;;;46.65;17.45;;;;;;;2.46;92.43;100623.84;5003329;28;20026;-83
2021/12/25 05:14:07;;;;;;;49.63;18.42;;;;;;;2.40;92.58;100624.41;5004931;28;20027;-82
2021/12/25 05:16:32;;;;;;;52.45;18.92;;;;;;;2.39;92.43;100630.34;5004608;28;20064;-82
2021/12/25 05:18:58;;;;;;;51.95;19.25;;;;;;;2.36;92.53;100630.19;5004362;28;20034;-83
2021/12/25 05:21:23;;;;;;;48.78;17.85;;;;;;;2.33;92.41;100628.34;4986068;28;20062;-82
2021/12/25 05:23:49;;;;;;;48.92;18.17;;;;;;;2.30;92.25;100637.56;5002080;28;20042;-82
2021/12/25 05:26:15;;;;;;;51.50;18.55;;;;;;;2.23;91.98;100637.25;5003738;28;20281;-82
2021/12/25 05:28:43;;;;;;;47.55;17.45;;;;;;;2.20;92.35;100634.53;5003818;28;20033;-82
2021/12/25 05:31:11;;;;;;;50.72;17.30;;;;;;;2.17;92.61;100636.94;4994429;28;20738;-82
2021/12/25 05:33:37;;;;;;;47.10;18.23;;;;;;;2.14;92.42;100641.00;5001380;28;20026;-82
2021/12/25 05:36:03;;;;;;;48.40;17.67;;;;;;;2.11;92.53;100648.56;5001989;28;20061;-81
2021/12/25 05:38:29;;;;;;;45.28;16.40;;;;;;;2.06;92.21;100641.47;5003526;28;20018;-81
2021/12/25 05:40:54;;;;;;;48.10;17.38;;;;;;;2.03;91.93;100659.31;5003440;28;20034;-81
2021/12/25 05:43:20;;;;;;;47.72;18.05;;;;;;;2.00;92.31;100659.13;5004616;28;20034;-81
2021/12/25 05:45:45;;;;;;;45.85;17.27;;;;;;;1.98;92.67;100654.72;5004499;28;20030;-81
2021/12/25 05:48:10;;;;;;;46.15;18.05;;;;;;;1.95;92.86;100651.97;5004728;28;20071;-82
2021/12/25 05:50:36;;;;;;;49.72;16.83;;;;;;;1.90;92.67;100657.75;5004473;28;20185;-81
2021/12/25 05:53:03;;;;;;;46.38;17.38;;;;;;;1.89;93.07;100652.50;5004498;28;20034;-81
2021/12/25 05:55:29;;;;;;;48.53;17.98;;;;;;;1.88;93.01;100654.22;5001520;28;20030;-82
2021/12/25 05:57:54;;;;;;;45.47;16.98;;;;;;;1.86;93.07;100654.91;5001473;28;20216;-82
2021/12/25 06:00:20;;;;;;;48.58;18.27;;;;;;;1.85;93.28;100654.00;5004216;28;20296;-81
2021/12/25 06:02:46;;;;;;;49.15;17.65;;;;;;;1.85;93.08;100658.28;4993809;28;20030;-81
2021/12/25 06:05:12;;;;;;;49.13;17.95;;;;;;;1.85;93.75;100663.41;4997185;28;20026;-81
2021/12/25 06:07:37;;;;;;;49.88;17.27;;;;;;;1.82;93.03;100668.38;4996243;28;20054;-81
2021/12/25 06:10:06;;;;;;;46.97;17.05;;;;;;;1.80;93.19;100676.00;4992733;28;20047;-81
2021/12/25 06:12:32;;;;;;;48.58;17.23;;;;;;;1.80;93.14;100675.13;4999315;28;20288;-82
2021/12/25 06:15:01;;;;;;;45.60;16.15;;;;;;;1.77;92.91;100673.28;4993487;28;20101;-82
2021/12/25 06:17:26;;;;;;;46.03;16.52;;;;;;;1.74;92.52;100673.09;4992882;28;20026;-81
2021/12/25 06:19:52;;;;;;;45.58;15.82;;;;;;;1.73;92.93;100679.91;4991549;28;20040;-82
2021/12/25 06:22:17;;;;;;;42.50;15.45;;;;;;;1.69;92.01;100680.53;4997112;28;20085;-82
2021/12/25 06:24:44;;;;;;;42.42;15.32;;;;;;;1.65;92.93;100685.41;4999419;28;20041;-81
2021/12/25 06:27:09;;;;;;;42.00;15.02;;;;;;;1.61;92.41;100691.16;4993631;28;20035;-81
2021/12/25 06:29:35;;;;;;;43.55;15.35;;;;;;;1.56;92.54;100686.69;4995573;28;20036;-81
2021/12/25 06:32:00;;;;;;;44.33;16.23;;;;;;;1.53;92.48;100691.59;5001421;28;20084;-82
2021/12/25 06:34:25;;;;;;;45.17;15.07;;;;;;;1.51;92.63;100695.78;4993014;28;20050;-81
2021/12/25 06:36:51;;;;;;;41.58;14.95;;;;;;;1.47;92.51;100688.69;4997774;28;20233;-82
2021/12/25 06:39:16;;;;;;;40.85;13.85;;;;;;;1.46;92.81;100696.31;4995638;28;20045;-81
2021/12/25 06:41:44;;;;;;;37.83;13.95;;;;;;;1.46;93.36;100699.75;4994605;28;20026;-81
2021/12/25 06:44:10;;;;;;;37.70;13.68;;;;;;;1.45;92.53;100698.00;4996942;28;20166;-81
2021/12/25 06:46:36;;;;;;;37.97;14.32;;;;;;;1.43;92.63;100703.84;4996685;28;20319;-81
2021/12/25 06:49:01;;;;;;;38.60;14.18;;;;;;;1.39;93.34;100693.41;5001975;28;20041;-81
2021/12/25 06:51:26;;;;;;;41.85;13.77;;;;;;;1.38;92.55;100707.03;4998008;28;20033;-81
2021/12/25 06:53:52;;;;;;;39.00;14.32;;;;;;;1.37;92.84;100704.38;5000386;28;20026;-81
2021/12/25 06:56:18;;;;;;;38.75;13.95;;;;;;;1.35;93.19;100711.09;4994183;28;20030;-81
2021/12/25 06:58:43;;;;;;;43.35;14.50;;;;;;;1.30;93.32;100710.81;4996046;28;20050;-81
2021/12/25 07:01:09;;;;;;;41.35;14.05;;;;;;;1.29;93.27;100716.75;4998665;28;20045;-81
2021/12/25 07:03:34;;;;;;;40.13;13.85;;;;;;;1.26;92.94;100718.25;4993570;28;20026;-82
2021/12/25 07:05:59;;;;;;;38.13;14.07;;;;;;;1.25;93.08;100722.50;4998003;28;20065;-81
2021/12/25 07:08:25;;;;;;;40.10;14.18;;;;;;;1.25;93.26;100719.06;4987166;28;20312;-81
2021/12/25 07:10:50;;;;;;;45.30;15.38;;;;;;;1.25;93.81;100721.63;4993334;28;20153;-82
2021/12/25 07:13:18;;;;;;;41.60;14.30;;;;;;;1.25;93.56;100729.34;4993944;28;20284;-82
2021/12/25 07:15:44;;;;;;;41.78;15.05;;;;;;;1.24;93.60;100732.69;4988647;28;20054;-81
2021/12/25 07:18:10;;;;;;;42.65;14.80;;;;;;;1.19;93.38;100725.59;5001045;28;20091;-81
2021/12/25 07:20:36;;;;;;;38.70;13.50;;;;;;;1.19;93.53;100729.84;4990389;28;20312;-83
2021/12/25 07:23:01;;;;;;;39.90;14.75;;;;;;;1.20;93.46;100737.63;4996586;28;20162;-82
2021/12/25 07:25:26;;;;;;;36.67;12.90;;;;;;;1.18;93.02;100739.22;4995818;28;20046;-82
2021/12/25 07:27:52;;;;;;;38.67;13.55;;;;;;;1.15;93.19;100744.16;4992164;28;20089;-82
2021/12/25 07:30:18;;;;;;;41.70;15.13;;;;;;;1.14;93.33;100739.81;5002906;28;20030;-81
2021/12/25 07:32:44;;;;;;;35.58;13.68;;;;;;;1.13;93.02;100750.91;4983617;28;20027;-82
2021/12/25 07:35:09;;;;;;;34.78;12.85;;;;;;;1.10;93.63;100747.25;4987640;28;20209;-81
2021/12/25 07:37:34;;;;;;;40.38;14.15;;;;;;;1.09;93.24;100754.06;4995138;28;20033;-83
2021/12/25 07:40:01;;;;;;;39.85;14.52;;;;;;;1.09;93.33;100748.06;4999472;28;20344;-82
2021/12/25 07:42:27;;;;;;;35.95;12.77;;;;;;;1.08;93.18;100751.41;4993636;28;20102;-82
2021/12/25 07:44:55;;;;;;;35.58;12.15;;;;;;;1.05;93.56;100746.97;4993455;28;20077;-82
2021/12/25 07:47:22;;;;;;;31.42;12.40;;;;;;;1.03;92.84;100754.59;5002345;28;20034;-82
2021/12/25 07:49:49;;;;;;;31.08;12.05;;;;;;;1.00;93.42;100754.41;4996729;28;20018;-82
2021/12/25 07:52:15;;;;;;;33.05;12.40;;;;;;;0.98;92.59;100757.66;4996821;28;20038;-82
2021/12/25 07:54:41;;;;;;;30.67;11.88;;;;;;;0.95;92.83;100754.91;4998749;28;20053;-82
2021/12/25 07:57:06;;;;;;;30.65;11.43;;;;;;;0.94;93.18;100764.31;4994063;28;20029;-82
2021/12/25 07:59:31;;;;;;;28.40;10.85;;;;;;;0.92;92.68;100754.72;4994354;28;20042;-82
2021/12/25 08:01:57;;;;;;;29.95;11.57;;;;;;;0.93;92.68;100766.75;4992670;28;20084;-81
2021/12/25 08:04:22;;;;;;;31.00;12.00;;;;;;;0.89;91.97;100764.81;4994186;28;20305;-81
2021/12/25 08:06:48;;;;;;;32.20;11.52;;;;;;;0.87;92.93;100767.28;4992997;28;20046;-82
2021/12/25 08:09:13;;;;;;;26.85;10.93;;;;;;;0.86;93.10;100771.50;4995218;28;20137;-81
2021/12/25 08:11:38;;;;;;;26.58;11.30;;;;;;;0.88;92.65;100770.72;4999396;28;20030;-82
2021/12/25 08:14:04;;;;;;;29.08;11.10;;;;;;;0.88;92.50;100778.41;4997144;28;20027;-82
2021/12/25 08:16:29;;;;;;;28.48;11.50;;;;;;;0.84;92.12;100778.22;4994293;28;20081;-81
2021/12/25 08:18:54;;;;;;;28.48;11.32;;;;;;;0.80;91.25;100786.53;4998008;28;20216;-82
2021/12/25 08:21:20;;;;;;;26.63;10.70;;;;;;;0.78;91.10;100779.53;4994084;28;20062;-82
2021/12/25 08:23:45;;;;;;;31.98;11.85;;;;;;;0.75;91.66;100787.91;4999544;28;20038;-83
2021/12/25 08:26:10;;;;;;;29.25;11.20;;;;;;;0.74;92.00;100787.81;4994765;28;20049;-82
2021/12/25 08:28:36;;;;;;;27.90;11.13;;;;;;;0.74;92.23;100786.16;4995295;28;20212;-82
2021/12/25 08:31:02;;;;;;;26.65;10.40;;;;;;;0.71;92.13;100793.66;4996406;28;20030;-81
2021/12/25 08:33:27;;;;;;;25.50;10.75;;;;;;;0.70;91.25;100799.56;4999064;28;20053;-81
2021/12/25 08:35:52;;;;;;;28.60;10.88;;;;;;;0.70;91.51;100804.69;5001496;28;20046;-83
2021/12/25 08:38:18;;;;;;;29.55;11.35;;;;;;;0.71;91.65;100803.00;5001591;28;20026;-82
2021/12/25 08:40:44;;;;;;;28.63;11.48;;;;;;;0.68;91.67;100806.25;5001480;28;20076;-82
2021/12/25 08:43:09;;;;;;;26.58;10.80;;;;;;;0.66;91.10;100802.72;5004222;28;20034;-82
2021/12/25 08:48:06;;;;;;;27.25;11.07;;;;;;;0.65;91.45;100819.81;5003685;28;20026;-81
2021/12/25 08:50:32;;;;;;;26.45;10.40;;;;;;;0.64;90.92;100819.72;5003612;28;20031;-81
2021/12/25 08:52:57;;;;;;;30.33;11.07;;;;;;;0.61;90.93;100822.97;4999818;28;20057;-81
2021/12/25 08:55:23;;;;;;;29.00;10.40;;;;;;;0.61;90.86;100829.75;5002418;28;20265;-81
2021/12/25 08:57:49;;;;;;;30.25;10.70;;;;;;;0.59;91.05;100832.22;4992531;28;20053;-82
2021/12/25 09:00:15;;;;;;;25.77;10.07;;;;;;;0.57;91.07;100830.38;5000832;28;20026;-82
2021/12/25 09:02:40;;;;;;;24.08;9.80;;;;;;;0.57;91.00;100827.81;4999841;28;20782;-81
2021/12/25 09:05:06;;;;;;;28.58;10.52;;;;;;;0.55;90.52;100835.41;5003370;28;20030;-82
2021/12/25 09:07:31;;;;;;;25.63;10.80;;;;;;;0.56;90.29;100842.28;4999516;28;20034;-82
2021/12/25 09:09:57;;;;;;;27.40;10.27;;;;;;;0.56;90.26;100831.16;5002233;28;20022;-81
2021/12/25 09:12:24;;;;;;;29.02;11.30;;;;;;;0.55;91.09;100839.63;5001414;28;20050;-81
2021/12/25 09:14:50;;;;;;;27.27;10.57;;;;;;;0.56;90.50;100841.41;5003015;28;20034;-82
2021/12/25 09:17:15;;;;;;;25.02;10.20;;;;;;;0.52;90.09;100837.75;5000217;28;20034;-81
2021/12/25 09:19:42;;;;;;;26.27;10.43;;;;;;;0.54;90.50;100842.97;5005324;28;20057;-81
2021/12/25 09:22:09;;;;;;;24.38;9.82;;;;;;;0.53;90.22;100839.53;5001131;28;20233;-81
2021/12/25 09:24:35;;;;;;;27.40;9.85;;;;;;;0.50;90.03;100837.66;5005235;28;20030;-81
2021/12/25 09:27:00;;;;;;;25.98;10.05;;;;;;;0.48;90.65;100838.38;4996180;28;20293;-81
2021/12/25 09:29:26;;;;;;;27.83;10.93;;;;;;;0.49;90.03;100846.16;5000045;28;20041;-81
2021/12/25 09:31:51;;;;;;;26.02;11.70;;;;;;;0.50;90.64;100845.34;5001290;28;20053;-65
2021/12/25 09:34:17;;;;;;;25.70;10.57;;;;;;;0.50;89.81;100835.09;4999836;28;20036;-65
2021/12/25 09:36:42;;;;;;;29.00;10.40;;;;;;;0.49;90.08;100835.91;5003911;28;20038;-65
2021/12/25 09:39:08;;;;;;;26.80;10.02;;;;;;;0.48;89.99;100839.25;5004879;28;20054;-65
2021/12/25 09:41:34;;;;;;;27.95;10.52;;;;;;;0.46;89.83;100845.03;5003674;28;20291;-65
2021/12/25 09:44:01;;;;;;;26.67;10.50;;;;;;;0.46;90.74;100839.91;5004803;28;20191;-65
2021/12/25 09:46:26;;;;;;;24.75;10.50;;;;;;;0.44;90.23;100844.06;5004518;28;20073;-65
2021/12/25 09:48:52;;;;;;;26.83;10.82;;;;;;;0.41;89.45;100852.44;5004700;28;20383;-65
2021/12/25 09:51:18;;;;;;;26.02;10.15;;;;;;;0.38;89.03;100842.00;5004959;28;20219;-65
2021/12/25 09:53:57;;;;;;;29.15;11.02;;;;;;;0.37;89.98;100854.72;5004145;28;20161;-65
2021/12/25 09:56:23;;;;;;;28.35;10.82;;;;;;;0.36;90.18;100860.63;4984418;28;20039;-65
2021/12/25 09:58:49;;;;;;;25.50;10.32;;;;;;;0.34;89.44;100861.41;4996680;28;20026;-65
2021/12/25 10:01:31;;;;;;;25.35;10.43;;;;;;;0.36;89.80;100866.63;5003759;28;20031;-65
2021/12/25 10:03:56;;;;;;;24.95;9.93;;;;;;;0.31;88.97;100868.03;5004429;28;20018;-65
2021/12/25 10:06:31;;;;;;;26.35;10.77;;;;;;;0.30;89.44;100876.50;5004170;28;20149;-65
2021/12/25 10:08:58;;;;;;;28.42;11.07;;;;;;;0.31;89.90;100878.28;5004401;28;20066;-64
2021/12/25 10:11:25;;;;;;;25.70;10.27;;;;;;;0.31;89.15;100891.09;5004102;28;20312;-65
2021/12/25 10:13:54;;;;;;;25.25;10.23;;;;;;;0.27;87.79;100887.41;5004115;28;20169;-64
2021/12/25 10:16:24;;;;;;;28.48;11.27;;;;;;;0.26;88.91;100882.19;5002371;28;20324;-65
2021/12/25 10:18:51;;;;;;;27.65;11.18;;;;;;;0.26;88.93;100892.44;5003162;28;20208;-65
2021/12/25 10:21:19;;;;;;;27.30;10.57;;;;;;;0.26;89.57;100892.44;5002487;28;20269;-65
2021/12/25 10:24:00;;;;;;;27.02;10.63;;;;;;;0.26;88.73;100888.22;4992772;28;20022;-65
2021/12/25 10:26:25;;;;;;;27.15;10.90;;;;;;;0.23;88.58;100889.69;4993046;28;20046;-65
2021/12/25 10:28:51;;;;;;;23.77;10.48;;;;;;;0.22;88.61;100890.47;5003969;28;20036;-65
2021/12/25 10:31:17;;;;;;;24.70;9.90;;;;;;;0.21;88.85;100884.47;5003961;28;20105;-65
2021/12/25 10:33:51;;;;;;;26.90;10.57;;;;;;;0.21;89.36;100893.84;5003739;28;20025;-65
2021/12/25 10:36:28;;;;;;;24.55;9.75;;;;;;;0.21;87.82;100898.97;5003724;28;20022;-65
2021/12/25 10:39:10;;;;;;;26.35;9.98;;;;;;;0.16;88.32;100890.97;5004148;28;20050;-65
2021/12/25 10:41:39;;;;;;;26.40;10.35;;;;;;;0.12;88.30;100881.31;5003633;28;20038;-65
2021/12/25 10:44:26;;;;;;;22.85;9.45;;;;;;;0.13;88.25;100880.50;5003577;28;20320;-64
2021/12/25 10:46:55;;;;;;;21.10;9.10;;;;;;;0.10;86.91;100886.34;5003558;28;20303;-65
2021/12/25 10:49:24;;;;;;;20.42;8.75;;;;;;;0.07;88.25;100886.09;5003704;28;20225;-65
2021/12/25 10:51:50;;;;;;;20.23;8.73;;;;;;;0.02;88.09;100887.50;5003285;28;20045;-65
2021/12/25 10:54:17;;;;;;;21.00;9.32;;;;;;;-0.03;87.49;100882.06;5003222;28;20284;-65
2021/12/25 10:56:48;;;;;;;21.40;9.50;;;;;;;-0.03;87.09;100881.16;5003554;28;20366;-65
2021/12/25 10:59:16;;;;;;;22.52;9.07;;;;;;;-0.04;86.97;100875.16;5002184;28;20018;-64
2021/12/25 11:01:45;;;;;;;22.13;8.23;;;;;;;-0.08;87.63;100875.72;5003224;28;20078;-65
2021/12/25 11:04:29;;;;;;;22.58;8.73;;;;;;;-0.08;88.43;100879.97;5003456;28;20038;-65
2021/12/25 11:06:56;;;;;;;20.38;7.75;;;;;;;-0.09;87.96;100875.63;5002474;28;20034;-65
2021/12/25 11:09:22;;;;;;;20.80;8.52;;;;;;;-0.10;87.83;100872.19;5003070;28;20312;-65
2021/12/25 11:12:12;;;;;;;18.77;7.88;;;;;;;-0.08;88.55;100867.16;5003104;28;20026;-65
2021/12/25 11:14:38;;;;;;;17.10;8.00;;;;;;;-0.11;86.79;100874.66;4994824;28;20065;-65
2021/12/25 11:17:25;;;;;;;16.83;7.22;;;;;;;-0.11;87.26;100875.53;5003181;28;20035;-65
2021/12/25 11:20:00;;;;;;;16.80;7.05;;;;;;;-0.12;87.05;100880.56;5000792;28;20018;-65
2021/12/25 11:22:43;;;;;;;16.80;7.50;;;;;;;-0.07;87.02;100877.50;5003026;28;20189;-65
2021/12/25 11:25:09;;;;;;;16.25;7.00;;;;;;;-0.06;88.18;100894.66;5001888;28;20042;-65
2021/12/25 11:27:34;;;;;;;17.25;7.53;;;;;;;-0.03;88.39;100888.84;5002917;28;20228;-65
2021/12/25 11:30:01;;;;;;;20.23;7.88;;;;;;;-0.03;87.37;100891.41;5002370;28;20022;-65
2021/12/25 11:32:27;;;;;;;19.52;7.53;;;;;;;0.02;88.30;100889.16;5003009;28;20081;-64
2021/12/25 11:34:52;;;;;;;16.17;6.80;;;;;;;0.01;87.09;100887.38;5001455;28;20018;-65
2021/12/25 11:37:18;;;;;;;15.30;6.80;;;;;;;0.06;87.50;100886.00;4997297;28;20547;-64
2021/12/25 11:39:51;;;;;;;14.15;6.60;;;;;;;0.10;88.44;100873.53;5002780;28;20110;-65
2021/12/25 11:42:17;;;;;;;17.65;7.40;;;;;;;0.17;88.29;100868.00;5001806;28;20184;-65
2021/12/25 11:44:52;;;;;;;15.82;6.80;;;;;;;0.22;88.23;100862.28;4992939;28;20047;-65
2021/12/25 11:47:37;;;;;;;16.23;6.10;;;;;;;0.25;88.50;100876.19;4992174;28;20299;-65
2021/12/25 11:50:21;;;;;;;15.38;6.68;;;;;;;0.28;88.01;100867.81;5002941;28;20018;-65
2021/12/25 11:53:18;;;;;;;11.80;5.65;;;;;;;0.33;87.58;100871.56;5003215;28;20220;-65
2021/12/25 11:58:39;;;;;;;12.30;5.78;;;;;;;0.33;86.70;100869.91;5002552;28;20265;-65
2021/12/25 12:01:31;;;;;;;13.13;5.65;;;;;;;0.35;86.89;100864.88;5002844;28;20048;-65
2021/12/25 12:04:10;;;;;;;11.27;4.95;;;;;;;0.35;87.08;100862.31;5002958;28;20038;-65
2021/12/25 12:06:44;;;;;;;10.45;4.38;;;;;;;0.36;86.22;100868.31;5002851;28;20038;-64
2021/12/25 12:09:14;;;;;;;13.65;5.00;;;;;;;0.34;86.13;100865.66;5003070;28;20319;-65
2021/12/25 12:11:42;;;;;;;10.90;5.05;;;;;;;0.30;85.58;100867.13;5002799;28;20022;-65
2021/12/25 12:14:17;;;;;;;11.60;4.28;;;;;;;0.30;84.79;100866.22;5002485;28;20217;-65
2021/12/25 12:17:07;;;;;;;10.18;4.43;;;;;;;0.27;84.55;100860.91;5002748;28;20048;-65
2021/12/25 12:19:33;;;;;;;10.30;5.03;;;;;;;0.23;84.70;100857.25;4996639;28;20038;-64
2021/12/25 12:22:41;;;;;;;10.18;4.05;;;;;;;0.20;84.98;100864.75;5006476;28;20217;-65
2021/12/25 12:27:46;;;;;;;11.70;4.07;;;;;;;0.16;85.93;100862.78;5006185;28;20038;-64
2021/12/25 12:30:33;;;;;;;10.90;4.25;;;;;;;0.15;84.64;100859.31;5006233;28;20031;-64
2021/12/25 12:33:12;;;;;;;8.75;3.60;;;;;;;0.14;85.82;100847.28;4998860;28;20037;-64
2021/12/25 12:35:40;;;;;;;11.35;3.97;;;;;;;0.14;85.79;100849.84;5006294;28;20093;-65
2021/12/25 12:38:27;;;;;;;11.18;4.28;;;;;;;0.13;85.46;100850.66;5002890;28;20030;-65
2021/12/25 12:41:13;;;;;;;11.50;4.82;;;;;;;0.12;84.89;100841.19;5005287;28;20061;-65
2021/12/25 12:44:05;;;;;;;12.40;4.57;;;;;;;0.11;85.23;100836.84;5004641;28;20038;-65
2021/12/25 12:46:50;;;;;;;13.05;5.45;;;;;;;0.11;85.61;100830.84;5001464;28;20161;-74
2021/12/25 12:49:20;;;;;;;12.95;4.57;;;;;;;0.11;84.99;100833.41;5001173;28;20053;-74
2021/12/25 12:52:14;;;;;;;11.38;4.43;;;;;;;0.12;85.36;100825.81;5000946;28;20030;-73